Imperial, Texas
Current Conditions -  °F | °C
As of 8:53 AM on Saturday 25 Oct 2014 (Local Time) from KFST Reporting Station
Clear Clear  
Wind Chill: 63°   Ceiling: Unl
Heat Index: 63°   Visibility: 10mi
Dew Point: 55°   Wind: 10mph
Humidity: 75%   Direction: 170°S
Pressure: 30.2"   Gusts: NA
Location:  31.27°N, 102.69°W
Report Text: KFST 251353Z AUTO 17009KT 10SM CLR 17/13 A3020 RMK AO2 SLP188 T01720128
Loading
Personal Weather Stations






























Interactive Weather Map
Tropical Storm Tracking
New forecast layout! Learn more

10-Day Weather Forecast

Advertisements
Track Severe Weather on mobile